createdAt,value
2022-10-11T00:00:04.731Z,6.67
2022-10-11T00:00:15.307Z,6.67
2022-10-11T00:00:25.749Z,6.66
2022-10-11T00:00:36.256Z,6.64
2022-10-11T00:00:46.795Z,6.64
2022-10-11T00:00:57.303Z,6.64
2022-10-11T00:01:07.915Z,6.64
2022-10-11T00:01:18.353Z,6.62
2022-10-11T00:01:28.866Z,6.61
2022-10-11T00:01:39.349Z,6.61
2022-10-11T00:01:49.804Z,6.61
2022-10-11T00:02:00.324Z,6.61
2022-10-11T00:02:10.822Z,6.59
2022-10-11T00:02:21.329Z,6.59
2022-10-11T00:02:31.836Z,6.59
2022-10-11T00:02:42.352Z,6.58
2022-10-11T00:02:52.852Z,6.59
2022-10-11T00:03:03.372Z,6.56
2022-10-11T00:03:13.866Z,6.58
2022-10-11T00:03:24.405Z,6.56
2022-10-11T00:03:34.891Z,6.55
2022-10-11T00:03:45.397Z,6.52
2022-10-11T00:03:55.908Z,6.56
2022-10-11T00:04:06.408Z,6.54
2022-10-11T00:04:16.921Z,6.56
2022-10-11T00:04:27.422Z,6.56
2022-10-11T00:04:37.927Z,6.56
2022-10-11T00:04:48.436Z,6.58
2022-10-11T00:04:58.946Z,6.58
2022-10-11T00:05:09.443Z,6.58
2022-10-11T00:05:19.950Z,6.59
2022-10-11T00:05:30.467Z,6.59
2022-10-11T00:05:40.980Z,6.61
2022-10-11T00:05:51.475Z,6.62
2022-10-11T00:06:02.298Z,6.62
2022-10-11T00:06:12.493Z,6.61
2022-10-11T00:06:23.002Z,6.62
2022-10-11T00:06:33.512Z,6.66
2022-10-11T00:06:44.038Z,6.64
2022-10-11T00:06:54.529Z,6.64
2022-10-11T00:07:05.027Z,6.66
2022-10-11T00:07:15.540Z,6.64
2022-10-11T00:07:26.042Z,6.62
2022-10-11T00:07:36.555Z,6.64
2022-10-11T00:07:47.052Z,6.64
2022-10-11T00:07:57.577Z,6.64
2022-10-11T00:08:08.088Z,6.64
2022-10-11T00:08:18.608Z,6.62
2022-10-11T00:08:29.089Z,6.61
2022-10-11T00:08:39.606Z,6.61
2022-10-11T00:08:50.095Z,6.61
2022-10-11T00:09:00.617Z,6.59
2022-10-11T00:09:11.111Z,6.59
2022-10-11T00:09:21.618Z,6.59
2022-10-11T00:09:32.127Z,6.61
2022-10-11T00:09:42.671Z,6.61
2022-10-11T00:09:53.145Z,6.58
2022-10-11T00:10:03.651Z,6.59
2022-10-11T00:10:14.167Z,6.56
2022-10-11T00:10:24.672Z,6.56
2022-10-11T00:10:35.185Z,6.56
2022-10-11T00:10:45.682Z,6.55
2022-10-11T00:10:56.204Z,6.55
2022-10-11T00:11:06.702Z,6.54
2022-10-11T00:11:17.216Z,6.52
2022-10-11T00:11:27.717Z,6.51
2022-10-11T00:11:38.230Z,6.49
2022-10-11T00:11:48.734Z,6.49
2022-10-11T00:11:59.245Z,6.46
2022-10-11T00:12:09.759Z,6.44
2022-10-11T00:12:20.258Z,6.46
2022-10-11T00:12:30.772Z,6.43
2022-10-11T00:12:41.269Z,6.43
2022-10-11T00:12:51.778Z,6.44
2022-10-11T00:13:02.285Z,6.40
2022-10-11T00:13:12.795Z,6.41
2022-10-11T00:13:23.301Z,6.40
2022-10-11T00:13:33.805Z,6.40
2022-10-11T00:13:44.319Z,6.38
2022-10-11T00:13:54.821Z,6.38
2022-10-11T00:14:05.332Z,6.37
2022-10-11T00:14:15.840Z,6.37
2022-10-11T00:14:26.350Z,6.34
2022-10-11T00:14:36.858Z,6.36
2022-10-11T00:14:47.395Z,6.34
2022-10-11T00:14:57.861Z,6.33
2022-10-11T00:15:08.372Z,6.33
2022-10-11T00:15:18.903Z,6.31
2022-10-11T00:15:29.375Z,6.31
2022-10-11T00:15:39.888Z,6.30
2022-10-11T00:15:50.392Z,6.30
2022-10-11T00:16:00.922Z,6.28
2022-10-11T00:16:11.404Z,6.27
2022-10-11T00:16:21.912Z,6.25
2022-10-11T00:16:32.413Z,6.21
2022-10-11T00:16:42.926Z,6.22
2022-10-11T00:16:53.456Z,6.21
2022-10-11T00:17:03.947Z,6.19
2022-10-11T00:17:14.443Z,6.19
2022-10-11T00:17:24.946Z,6.21
2022-10-11T00:17:35.451Z,6.19
2022-10-11T00:17:45.974Z,6.18
2022-10-11T00:17:56.458Z,6.17
2022-10-11T00:18:06.971Z,6.18
2022-10-11T00:18:17.475Z,6.18
2022-10-11T00:18:27.985Z,6.18
2022-10-11T00:18:38.509Z,6.19
2022-10-11T00:18:48.998Z,6.21
2022-10-11T00:18:59.501Z,6.21
2022-10-11T00:19:10.007Z,6.19
2022-10-11T00:19:20.509Z,6.19
2022-10-11T00:19:31.016Z,6.19
2022-10-11T00:19:41.528Z,6.22
2022-10-11T00:19:52.067Z,6.22
2022-10-11T00:20:02.534Z,6.25
2022-10-11T00:20:13.035Z,6.22
2022-10-11T00:20:23.550Z,6.25
2022-10-11T00:20:34.048Z,6.25
2022-10-11T00:20:44.584Z,6.22
2022-10-11T00:20:55.066Z,6.22
2022-10-11T00:21:05.571Z,6.22
2022-10-11T00:21:16.083Z,6.21
2022-10-11T00:21:26.581Z,6.21
2022-10-11T00:21:37.094Z,6.21
2022-10-11T00:21:47.591Z,6.21
2022-10-11T00:21:58.094Z,6.19
2022-10-11T00:22:08.604Z,6.19
2022-10-11T00:22:19.106Z,6.19
2022-10-11T00:22:29.621Z,6.17
2022-10-11T00:22:40.115Z,6.18
2022-10-11T00:22:50.630Z,6.15
2022-10-11T00:23:01.128Z,6.15
2022-10-11T00:23:11.640Z,6.14
2022-10-11T00:23:22.160Z,6.14
2022-10-11T00:23:32.654Z,6.14
2022-10-11T00:23:43.156Z,6.14
2022-10-11T00:23:53.664Z,6.11
2022-10-11T00:24:04.171Z,6.11
2022-10-11T00:24:14.678Z,6.09
2022-10-11T00:24:25.193Z,6.11
2022-10-11T00:24:35.695Z,6.11
2022-10-11T00:24:46.194Z,6.08
2022-10-11T00:24:56.711Z,6.08
2022-10-11T00:25:07.212Z,6.06
2022-10-11T00:25:17.727Z,6.06
2022-10-11T00:25:28.227Z,6.06
2022-10-11T00:25:38.765Z,6.06
2022-10-11T00:25:49.242Z,6.06
2022-10-11T00:25:59.758Z,6.04
2022-10-11T00:26:10.260Z,6.03
2022-10-11T00:26:20.772Z,6.03
2022-10-11T00:26:31.275Z,6.04
2022-10-11T00:26:46.369Z,6.03
2022-10-11T00:26:53.296Z,6.01
2022-10-11T00:27:02.803Z,6.00
2022-10-11T00:27:13.316Z,6.00
2022-10-11T00:27:23.825Z,5.99
2022-10-11T00:27:34.317Z,5.97
2022-10-11T00:27:44.831Z,5.99
2022-10-11T00:27:55.340Z,5.97
2022-10-11T00:28:05.854Z,6.00
2022-10-11T00:28:16.366Z,5.96
2022-10-11T00:28:26.937Z,5.96
2022-10-11T00:28:37.409Z,5.96
2022-10-11T00:28:47.949Z,5.97
2022-10-11T00:28:58.371Z,5.96
2022-10-11T00:29:08.882Z,5.96
2022-10-11T00:29:19.392Z,5.94
2022-10-11T00:29:29.892Z,5.94
2022-10-11T00:29:40.403Z,5.94
2022-10-11T00:29:50.911Z,5.93
2022-10-11T00:30:01.418Z,5.94
2022-10-11T00:30:11.955Z,5.93
2022-10-11T00:30:22.484Z,5.90
2022-10-11T00:30:32.956Z,5.90
2022-10-11T00:30:43.450Z,5.89
2022-10-11T00:30:53.958Z,5.90
2022-10-11T00:31:04.921Z,5.89
2022-10-11T00:31:14.976Z,5.85
2022-10-11T00:31:25.485Z,5.85
2022-10-11T00:31:36.081Z,5.85
2022-10-11T00:31:46.498Z,5.83
2022-10-11T00:31:57.007Z,5.82
2022-10-11T00:32:07.520Z,5.83
2022-10-11T00:32:18.032Z,5.81
2022-10-11T00:32:28.531Z,5.81
2022-10-11T00:32:39.044Z,5.81
2022-10-11T00:32:49.551Z,5.82
2022-10-11T00:33:00.056Z,5.78
2022-10-11T00:33:10.565Z,5.78
2022-10-11T00:33:21.083Z,5.76
2022-10-11T00:33:31.586Z,5.76
2022-10-11T00:33:42.080Z,5.76
2022-10-11T00:33:52.593Z,5.76
2022-10-11T00:34:03.102Z,5.75
2022-10-11T00:34:13.606Z,5.74
2022-10-11T00:34:24.114Z,5.74
2022-10-11T00:34:34.657Z,5.72
2022-10-11T00:34:45.129Z,5.71
2022-10-11T00:34:55.636Z,5.71
2022-10-11T00:35:06.156Z,5.71
2022-10-11T00:35:16.657Z,5.71
2022-10-11T00:35:27.159Z,5.68
2022-10-11T00:35:37.722Z,5.71
2022-10-11T00:35:48.183Z,5.68
2022-10-11T00:35:58.681Z,5.68
2022-10-11T00:36:09.664Z,5.71
2022-10-11T00:36:19.699Z,5.68
2022-10-11T00:36:30.208Z,5.68
2022-10-11T00:36:40.722Z,5.68
2022-10-11T00:36:51.236Z,5.68
2022-10-11T00:37:01.740Z,5.67
2022-10-11T00:37:12.241Z,5.65
2022-10-11T00:37:22.755Z,5.67
2022-10-11T00:37:33.263Z,5.64
2022-10-11T00:37:43.770Z,5.64
2022-10-11T00:37:54.295Z,5.63
2022-10-11T00:38:04.782Z,5.63
2022-10-11T00:38:15.289Z,5.63
2022-10-11T00:38:25.800Z,5.60
2022-10-11T00:38:36.307Z,5.58
2022-10-11T00:38:46.810Z,5.60
2022-10-11T00:38:57.324Z,5.60
2022-10-11T00:39:07.833Z,5.58
2022-10-11T00:39:18.331Z,5.60
2022-10-11T00:39:28.839Z,5.60
2022-10-11T00:39:39.339Z,5.60
2022-10-11T00:39:49.851Z,5.60
2022-10-11T00:40:00.362Z,5.58
2022-10-11T00:40:10.892Z,5.60
2022-10-11T00:40:21.371Z,5.60
2022-10-11T00:40:31.884Z,5.60
2022-10-11T00:40:42.391Z,5.58
2022-10-11T00:40:52.901Z,5.58
2022-10-11T00:41:03.404Z,5.58
2022-10-11T00:41:13.924Z,5.58
2022-10-11T00:41:24.421Z,5.60
2022-10-11T00:41:34.921Z,5.60
2022-10-11T00:41:45.431Z,5.57
2022-10-11T00:41:55.973Z,5.57
2022-10-11T00:42:06.448Z,5.56
2022-10-11T00:42:16.952Z,5.56
2022-10-11T00:42:27.459Z,5.57
2022-10-11T00:42:37.963Z,5.54
2022-10-11T00:42:48.482Z,5.54
2022-10-11T00:42:59.026Z,5.56
2022-10-11T00:43:09.495Z,5.53
2022-10-11T00:43:20.001Z,5.54
2022-10-11T00:43:30.507Z,5.54
2022-10-11T00:43:41.012Z,5.54
2022-10-11T00:43:51.519Z,5.53
2022-10-11T00:44:02.033Z,5.49
2022-10-11T00:44:12.565Z,5.49
2022-10-11T00:44:23.044Z,5.51
2022-10-11T00:44:33.549Z,5.49
2022-10-11T00:44:44.056Z,5.51
2022-10-11T00:44:54.563Z,5.49
2022-10-11T00:45:05.072Z,5.51
2022-10-11T00:45:15.584Z,5.49
2022-10-11T00:45:26.108Z,5.51
2022-10-11T00:45:36.600Z,5.51
2022-10-11T00:45:47.105Z,5.51
2022-10-11T00:45:57.623Z,5.53
2022-10-11T00:46:08.477Z,5.53
2022-10-11T00:46:18.633Z,5.54
2022-10-11T00:46:29.145Z,5.56
2022-10-11T00:46:39.639Z,5.56
2022-10-11T00:46:53.651Z,5.56
2022-10-11T00:47:01.678Z,5.58
2022-10-11T00:47:11.160Z,5.60
2022-10-11T00:47:21.659Z,5.60
2022-10-11T00:47:32.173Z,5.63
2022-10-11T00:47:42.679Z,5.63
2022-10-11T00:47:53.187Z,5.63
2022-10-11T00:48:03.703Z,5.64
2022-10-11T00:48:14.213Z,5.64
2022-10-11T00:48:24.704Z,5.63
2022-10-11T00:48:35.207Z,5.64
2022-10-11T00:48:45.720Z,5.64
2022-10-11T00:48:56.221Z,5.63
2022-10-11T00:49:06.732Z,5.63
2022-10-11T00:49:17.249Z,5.64
2022-10-11T00:49:27.764Z,5.64
2022-10-11T00:49:38.271Z,5.65
2022-10-11T00:49:48.758Z,5.65
2022-10-11T00:49:59.261Z,5.65
2022-10-11T00:50:09.765Z,5.64
2022-10-11T00:50:20.275Z,5.65
2022-10-11T00:50:30.783Z,5.64
2022-10-11T00:50:41.292Z,5.64
2022-10-11T00:50:51.803Z,5.63
2022-10-11T00:51:02.794Z,5.64
2022-10-11T00:51:12.820Z,5.63
2022-10-11T00:51:23.328Z,5.64
2022-10-11T00:51:33.836Z,5.63
2022-10-11T00:51:44.342Z,5.61
2022-10-11T00:51:54.848Z,5.61
2022-10-11T00:52:05.353Z,5.61
2022-10-11T00:52:15.858Z,5.61
2022-10-11T00:52:26.384Z,5.63
2022-10-11T00:52:36.873Z,5.61
2022-10-11T00:52:47.378Z,5.63
2022-10-11T00:52:57.882Z,5.63
2022-10-11T00:53:08.388Z,5.61
2022-10-11T00:53:18.899Z,5.63
2022-10-11T00:53:29.408Z,5.61
2022-10-11T00:53:39.914Z,5.61
2022-10-11T00:53:50.416Z,5.60
2022-10-11T00:54:00.941Z,5.63
2022-10-11T00:54:11.438Z,5.61
2022-10-11T00:54:21.975Z,5.60
2022-10-11T00:54:32.445Z,5.60
2022-10-11T00:54:42.959Z,5.60
2022-10-11T00:54:53.475Z,5.58
2022-10-11T00:55:03.959Z,5.60
2022-10-11T00:55:14.475Z,5.58
2022-10-11T00:55:24.974Z,5.57
2022-10-11T00:55:35.485Z,5.57
2022-10-11T00:55:45.989Z,5.57
2022-10-11T00:55:56.500Z,5.56
2022-10-11T00:56:07.355Z,5.57
2022-10-11T00:56:17.515Z,5.56
2022-10-11T00:56:28.004Z,5.56
2022-10-11T00:56:38.521Z,5.56
2022-10-11T00:56:49.020Z,5.56
2022-10-11T00:56:59.571Z,5.54
2022-10-11T00:57:10.031Z,5.54
2022-10-11T00:57:20.543Z,5.54
2022-10-11T00:57:31.059Z,5.54
2022-10-11T00:57:41.552Z,5.54
2022-10-11T00:57:52.056Z,5.56
2022-10-11T00:58:02.562Z,5.56
2022-10-11T00:58:13.080Z,5.57
2022-10-11T00:58:23.585Z,5.58
2022-10-11T00:58:34.093Z,5.58
2022-10-11T00:58:44.592Z,5.58
2022-10-11T00:58:55.104Z,5.58
2022-10-11T00:59:05.606Z,5.60
2022-10-11T00:59:16.100Z,5.60
2022-10-11T00:59:26.606Z,5.60
2022-10-11T00:59:37.118Z,5.58
2022-10-11T00:59:47.646Z,5.60
2022-10-11T00:59:58.138Z,5.61
2022-10-11T01:00:08.670Z,5.60
2022-10-11T01:00:19.145Z,5.60
2022-10-11T01:00:29.678Z,5.61
2022-10-11T01:00:40.166Z,5.60
2022-10-11T01:00:50.806Z,5.60
2022-10-11T01:01:01.192Z,5.60
2022-10-11T01:01:11.752Z,5.61
2022-10-11T01:01:22.259Z,5.61
2022-10-11T01:01:32.783Z,5.58
2022-10-11T01:01:43.316Z,5.60
2022-10-11T01:01:53.705Z,5.57
2022-10-11T01:02:04.208Z,5.57
2022-10-11T01:02:14.715Z,5.57
2022-10-11T01:02:25.224Z,5.57
2022-10-11T01:02:35.735Z,5.57
2022-10-11T01:02:46.235Z,5.57
2022-10-11T01:02:56.739Z,5.56
2022-10-11T01:03:07.247Z,5.56
2022-10-11T01:03:17.763Z,5.56
2022-10-11T01:03:28.252Z,5.56
2022-10-11T01:03:38.759Z,5.56
2022-10-11T01:03:49.273Z,5.54
2022-10-11T01:03:59.776Z,5.54
2022-10-11T01:04:10.280Z,5.53
2022-10-11T01:04:20.798Z,5.53
2022-10-11T01:04:31.288Z,5.54
2022-10-11T01:04:41.812Z,5.53
2022-10-11T01:05:05.921Z,5.54
2022-10-11T01:05:27.566Z,5.54
2022-10-11T01:05:29.667Z,5.53
2022-10-11T01:05:30.441Z,5.53
2022-10-11T01:05:35.321Z,5.53
2022-10-11T01:05:44.859Z,5.53
2022-10-11T01:05:55.332Z,5.53
2022-10-11T01:06:06.277Z,5.53
2022-10-11T01:06:16.346Z,5.53
2022-10-11T01:06:26.875Z,5.54
2022-10-11T01:06:37.364Z,5.53
2022-10-11T01:06:47.871Z,5.53
2022-10-11T01:06:58.365Z,5.53
2022-10-11T01:07:08.875Z,5.54
2022-10-11T01:07:19.387Z,5.56
2022-10-11T01:07:29.888Z,5.56
2022-10-11T01:07:40.396Z,5.56
2022-10-11T01:07:50.894Z,5.56
2022-10-11T01:08:01.396Z,5.57
2022-10-11T01:08:11.919Z,5.57
2022-10-11T01:08:22.411Z,5.56
2022-10-11T01:08:32.919Z,5.56
2022-10-11T01:08:43.429Z,5.57
2022-10-11T01:08:53.930Z,5.57
2022-10-11T01:09:04.437Z,5.57
2022-10-11T01:09:14.979Z,5.54
2022-10-11T01:09:25.460Z,5.53
2022-10-11T01:09:35.953Z,5.54
2022-10-11T01:09:46.463Z,5.51
2022-10-11T01:09:56.975Z,5.51
2022-10-11T01:10:07.485Z,5.51
2022-10-11T01:10:17.986Z,5.51
2022-10-11T01:10:28.484Z,5.51
2022-10-11T01:10:38.993Z,5.53
2022-10-11T01:10:49.498Z,5.53
2022-10-11T01:11:00.030Z,5.53
2022-10-11T01:11:10.506Z,5.53
2022-10-11T01:11:21.046Z,5.53
2022-10-11T01:11:31.518Z,5.54
2022-10-11T01:11:42.030Z,5.54
2022-10-11T01:11:52.557Z,5.57
2022-10-11T01:12:03.040Z,5.57
2022-10-11T01:12:13.555Z,5.57
2022-10-11T01:12:24.050Z,5.57
2022-10-11T01:12:34.565Z,5.60
2022-10-11T01:12:45.058Z,5.60
2022-10-11T01:12:55.574Z,5.60
2022-10-11T01:13:06.068Z,5.61
2022-10-11T01:13:16.576Z,5.60
2022-10-11T01:13:27.085Z,5.58
2022-10-11T01:13:37.588Z,5.61
2022-10-11T01:13:48.098Z,5.60
2022-10-11T01:13:58.599Z,5.60
2022-10-11T01:14:09.106Z,5.58
2022-10-11T01:14:19.620Z,5.60
2022-10-11T01:14:30.122Z,5.58
2022-10-11T01:14:40.642Z,5.60
2022-10-11T01:14:51.195Z,5.57
2022-10-11T01:15:01.649Z,5.56
2022-10-11T01:15:12.158Z,5.56
2022-10-11T01:15:22.660Z,5.56
2022-10-11T01:15:33.191Z,5.56
2022-10-11T01:15:43.675Z,5.56
2022-10-11T01:15:54.182Z,5.54
2022-10-11T01:16:04.922Z,5.53
2022-10-11T01:16:15.188Z,5.51
2022-10-11T01:16:25.694Z,5.53
2022-10-11T01:16:36.207Z,5.51
2022-10-11T01:16:46.712Z,5.51
2022-10-11T01:16:57.214Z,5.53
2022-10-11T01:17:07.771Z,5.54
2022-10-11T01:17:18.231Z,5.49
2022-10-11T01:17:28.742Z,5.53
2022-10-11T01:17:39.245Z,5.54
2022-10-11T01:17:49.760Z,5.56
2022-10-11T01:18:00.264Z,5.57
2022-10-11T01:18:10.775Z,5.57
2022-10-11T01:18:21.277Z,5.58
2022-10-11T01:18:31.783Z,5.57
2022-10-11T01:18:42.293Z,5.57
2022-10-11T01:18:52.796Z,5.57
2022-10-11T01:19:03.306Z,5.57
2022-10-11T01:19:13.825Z,5.56
2022-10-11T01:19:24.318Z,5.54
2022-10-11T01:19:34.821Z,5.56
2022-10-11T01:19:45.339Z,5.54
2022-10-11T01:19:55.838Z,5.54
2022-10-11T01:20:06.343Z,5.53
2022-10-11T01:20:16.850Z,5.51
2022-10-11T01:20:27.361Z,5.49
2022-10-11T01:20:37.873Z,5.49
2022-10-11T01:20:48.372Z,5.48
2022-10-11T01:20:58.876Z,5.48
2022-10-11T01:21:09.381Z,5.48
2022-10-11T01:21:19.882Z,5.48
2022-10-11T01:21:30.397Z,5.45
2022-10-11T01:21:40.904Z,5.43
2022-10-11T01:21:51.405Z,5.43
2022-10-11T01:22:01.921Z,5.43
2022-10-11T01:22:12.443Z,5.43
2022-10-11T01:22:22.924Z,5.45
2022-10-11T01:22:33.434Z,5.45
2022-10-11T01:22:43.946Z,5.43
2022-10-11T01:22:54.443Z,5.45
2022-10-11T01:23:04.965Z,5.42
2022-10-11T01:23:15.453Z,5.42
2022-10-11T01:23:25.960Z,5.42
2022-10-11T01:23:36.475Z,5.40
2022-10-11T01:23:46.980Z,5.42
2022-10-11T01:23:57.487Z,5.42
2022-10-11T01:24:08.871Z,5.43
2022-10-11T01:24:18.499Z,5.39
2022-10-11T01:24:29.008Z,5.39
2022-10-11T01:24:39.511Z,5.39
2022-10-11T01:24:50.019Z,5.39
2022-10-11T01:25:00.538Z,5.38
2022-10-11T01:25:11.038Z,5.36
2022-10-11T01:25:21.549Z,5.35
2022-10-11T01:25:32.069Z,5.35
2022-10-11T01:25:42.562Z,5.35
2022-10-11T01:25:53.076Z,5.35
2022-10-11T01:26:03.834Z,5.33
2022-10-11T01:26:14.094Z,5.35
2022-10-11T01:26:24.592Z,5.33
2022-10-11T01:26:35.100Z,5.31
2022-10-11T01:26:45.617Z,5.31
2022-10-11T01:26:56.118Z,5.30
2022-10-11T01:27:06.635Z,5.30
2022-10-11T01:27:17.127Z,5.30
2022-10-11T01:27:27.647Z,5.28
2022-10-11T01:27:38.146Z,5.28
2022-10-11T01:27:48.651Z,5.27
2022-10-11T01:27:59.163Z,5.28
2022-10-11T01:28:09.822Z,5.27
2022-10-11T01:28:20.292Z,5.27
2022-10-11T01:28:30.712Z,5.28
2022-10-11T01:28:41.228Z,5.28
2022-10-11T01:28:51.765Z,5.28
2022-10-11T01:29:02.216Z,5.28
2022-10-11T01:29:12.719Z,5.27
2022-10-11T01:29:23.226Z,5.27
2022-10-11T01:29:33.741Z,5.25
2022-10-11T01:29:44.243Z,5.27
2022-10-11T01:29:54.751Z,5.28
2022-10-11T01:30:05.261Z,5.27
2022-10-11T01:30:15.761Z,5.25
2022-10-11T01:30:26.266Z,5.27
2022-10-11T01:30:36.797Z,5.27
2022-10-11T01:30:47.281Z,5.27
2022-10-11T01:30:57.790Z,5.27
2022-10-11T01:31:08.309Z,5.27
2022-10-11T01:31:18.807Z,5.24
2022-10-11T01:31:29.314Z,5.25
2022-10-11T01:31:39.812Z,5.24
2022-10-11T01:31:50.331Z,5.25
2022-10-11T01:32:00.829Z,5.22
2022-10-11T01:32:11.348Z,5.24
2022-10-11T01:32:21.838Z,5.22
2022-10-11T01:32:32.355Z,5.21
2022-10-11T01:32:42.858Z,5.21
2022-10-11T01:32:53.370Z,5.21
2022-10-11T01:33:03.866Z,5.21
2022-10-11T01:33:14.381Z,5.20
2022-10-11T01:33:24.895Z,5.20
2022-10-11T01:33:35.393Z,5.20
2022-10-11T01:33:45.906Z,5.20
2022-10-11T01:33:56.403Z,5.21
2022-10-11T01:34:06.913Z,5.20
2022-10-11T01:34:17.415Z,5.20
2022-10-11T01:34:27.926Z,5.20
2022-10-11T01:34:38.430Z,5.20
2022-10-11T01:34:48.951Z,5.20
2022-10-11T01:34:59.442Z,5.20
2022-10-11T01:35:09.947Z,5.17
2022-10-11T01:35:20.459Z,5.18
2022-10-11T01:35:30.969Z,5.17
2022-10-11T01:35:41.507Z,5.17
2022-10-11T01:35:51.982Z,5.15
2022-10-11T01:36:02.987Z,5.17
2022-10-11T01:36:12.988Z,5.18
2022-10-11T01:36:23.495Z,5.15
2022-10-11T01:36:34.013Z,5.15
2022-10-11T01:36:44.513Z,5.13
2022-10-11T01:36:55.023Z,5.13
2022-10-11T01:37:05.521Z,5.13
2022-10-11T01:37:16.022Z,5.13
2022-10-11T01:37:26.533Z,5.12
2022-10-11T01:37:37.049Z,5.13
2022-10-11T01:37:47.546Z,5.10
2022-10-11T01:37:58.054Z,5.12
2022-10-11T01:38:08.596Z,5.09
2022-10-11T01:38:19.081Z,5.09
2022-10-11T01:38:29.599Z,5.10
2022-10-11T01:38:40.092Z,5.09
2022-10-11T01:38:50.606Z,5.07
2022-10-11T01:39:01.110Z,5.07
2022-10-11T01:39:11.622Z,5.07
2022-10-11T01:39:22.129Z,5.07
2022-10-11T01:39:32.635Z,5.06
2022-10-11T01:39:43.141Z,5.06
2022-10-11T01:39:53.645Z,5.06
2022-10-11T01:40:04.162Z,5.06
2022-10-11T01:40:14.662Z,5.06
2022-10-11T01:40:25.182Z,5.07
2022-10-11T01:40:35.680Z,5.04
2022-10-11T01:40:46.188Z,5.04
2022-10-11T01:40:56.701Z,5.03
2022-10-11T01:41:07.213Z,5.03
2022-10-11T01:41:17.712Z,5.04
2022-10-11T01:41:28.222Z,5.03
2022-10-11T01:41:38.731Z,5.02
2022-10-11T01:41:49.251Z,5.00
2022-10-11T01:41:59.749Z,5.02
2022-10-11T01:42:10.284Z,5.02
2022-10-11T01:42:20.770Z,5.00
2022-10-11T01:42:31.272Z,5.02
2022-10-11T01:42:41.773Z,5.00
2022-10-11T01:42:52.288Z,4.99
2022-10-11T01:43:02.794Z,4.99
2022-10-11T01:43:13.301Z,4.99
2022-10-11T01:43:23.804Z,4.99
2022-10-11T01:43:34.313Z,4.99
2022-10-11T01:43:44.820Z,4.96
2022-10-11T01:43:55.347Z,4.97
2022-10-11T01:44:05.832Z,4.96
2022-10-11T01:44:16.342Z,4.96
2022-10-11T01:44:26.849Z,4.94
2022-10-11T01:44:37.362Z,4.92
2022-10-11T01:44:47.876Z,4.94
2022-10-11T01:44:58.368Z,4.92
2022-10-11T01:45:08.872Z,4.91
2022-10-11T01:45:19.385Z,4.92
2022-10-11T01:45:29.888Z,4.91
2022-10-11T01:45:40.421Z,4.94
2022-10-11T01:45:50.909Z,4.91
2022-10-11T01:46:01.550Z,4.89
2022-10-11T01:46:11.910Z,4.91
2022-10-11T01:46:22.417Z,4.89
2022-10-11T01:46:32.924Z,4.88
2022-10-11T01:46:43.459Z,4.89
2022-10-11T01:46:53.943Z,4.89
2022-10-11T01:47:04.438Z,4.88
2022-10-11T01:47:14.944Z,4.85
2022-10-11T01:47:25.453Z,4.85
2022-10-11T01:47:35.953Z,4.86
2022-10-11T01:47:46.497Z,4.84
2022-10-11T01:47:56.964Z,4.84
2022-10-11T01:48:07.480Z,4.82
2022-10-11T01:48:17.976Z,4.84
2022-10-11T01:48:28.491Z,4.84
2022-10-11T01:48:38.986Z,4.82
2022-10-11T01:48:49.499Z,4.80
2022-10-11T01:49:00.021Z,4.78
2022-10-11T01:49:10.511Z,4.82
2022-10-11T01:49:21.016Z,4.77
2022-10-11T01:49:31.528Z,4.77
2022-10-11T01:49:42.032Z,4.75
2022-10-11T01:49:52.537Z,4.77
2022-10-11T01:50:03.053Z,4.72
2022-10-11T01:50:13.549Z,4.73
2022-10-11T01:50:24.047Z,4.72
2022-10-11T01:50:34.563Z,4.72
2022-10-11T01:50:45.068Z,4.72
2022-10-11T01:50:55.590Z,4.72
2022-10-11T01:51:06.074Z,4.70
2022-10-11T01:51:16.585Z,4.70
2022-10-11T01:51:27.086Z,4.70
2022-10-11T01:51:37.596Z,4.70
2022-10-11T01:51:48.094Z,4.70
2022-10-11T01:51:58.618Z,4.69
2022-10-11T01:52:09.127Z,4.70
2022-10-11T01:52:19.614Z,4.66
2022-10-11T01:52:30.117Z,4.66
2022-10-11T01:52:40.628Z,4.67
2022-10-11T01:52:51.146Z,4.67
2022-10-11T01:53:01.633Z,4.66
2022-10-11T01:53:12.158Z,4.65
2022-10-11T01:53:22.641Z,4.65
2022-10-11T01:53:33.151Z,4.65
2022-10-11T01:53:43.678Z,4.65
2022-10-11T01:53:54.167Z,4.65
2022-10-11T01:54:04.678Z,4.63
2022-10-11T01:54:15.179Z,4.62
2022-10-11T01:54:25.677Z,4.63
2022-10-11T01:55:03.967Z,4.62
2022-10-11T01:55:08.542Z,4.62
2022-10-11T01:55:09.093Z,4.62
2022-10-11T01:55:10.124Z,4.63
2022-10-11T01:55:18.211Z,4.62
2022-10-11T01:55:28.733Z,4.60
2022-10-11T01:55:39.218Z,4.62
2022-10-11T01:55:49.732Z,4.60
2022-10-11T01:56:00.226Z,4.58
2022-10-11T01:56:10.737Z,4.58
2022-10-11T01:56:21.238Z,4.58
2022-10-11T01:56:31.745Z,4.58
2022-10-11T01:56:42.285Z,4.58
2022-10-11T01:56:52.761Z,4.55
2022-10-11T01:57:03.266Z,4.55
2022-10-11T01:57:13.781Z,4.58
2022-10-11T01:57:24.271Z,4.58
2022-10-11T01:57:34.788Z,4.54
2022-10-11T01:57:45.291Z,4.58
2022-10-11T01:57:55.793Z,4.58
2022-10-11T01:58:06.306Z,4.58
2022-10-11T01:58:16.806Z,4.58
2022-10-11T01:58:27.310Z,4.58
2022-10-11T01:58:37.817Z,4.60
2022-10-11T01:58:48.316Z,4.60
2022-10-11T01:58:58.836Z,4.63
2022-10-11T01:59:09.326Z,4.65
2022-10-11T01:59:19.840Z,4.65
2022-10-11T01:59:30.338Z,4.65
2022-10-11T01:59:40.851Z,4.65
2022-10-11T01:59:51.349Z,4.65
2022-10-11T02:00:01.866Z,4.65
2022-10-11T02:00:12.370Z,4.65
2022-10-11T02:00:22.877Z,4.63
2022-10-11T02:00:33.374Z,4.65
2022-10-11T02:00:43.905Z,4.63
2022-10-11T02:00:54.386Z,4.63
2022-10-11T02:01:04.938Z,4.62
2022-10-11T02:01:15.470Z,4.62
2022-10-11T02:01:25.973Z,4.62
2022-10-11T02:01:36.458Z,4.60
2022-10-11T02:01:47.007Z,4.62
2022-10-11T02:01:57.443Z,4.62
2022-10-11T02:02:07.927Z,4.63
2022-10-11T02:02:18.432Z,4.65
2022-10-11T02:02:28.947Z,4.65
2022-10-11T02:02:39.449Z,4.66
2022-10-11T02:02:49.958Z,4.67
2022-10-11T02:03:00.457Z,4.66
2022-10-11T02:03:10.965Z,4.66
2022-10-11T02:03:21.467Z,4.66
2022-10-11T02:03:31.977Z,4.67
2022-10-11T02:03:42.482Z,4.66
2022-10-11T02:03:52.989Z,4.67
2022-10-11T02:04:03.493Z,4.67
2022-10-11T02:04:14.001Z,4.70
2022-10-11T02:04:24.510Z,4.72
2022-10-11T02:04:35.013Z,4.70
2022-10-11T02:04:45.554Z,4.70
2022-10-11T02:04:56.031Z,4.72
2022-10-11T02:05:06.542Z,4.70
2022-10-11T02:05:17.038Z,4.69
2022-10-11T02:05:27.539Z,4.69
2022-10-11T02:05:38.060Z,4.67
2022-10-11T02:05:48.557Z,4.69
2022-10-11T02:05:59.084Z,4.69
2022-10-11T02:06:09.578Z,4.69
2022-10-11T02:06:20.080Z,4.69
2022-10-11T02:06:30.586Z,4.69
2022-10-11T02:06:41.099Z,4.70
2022-10-11T02:06:51.607Z,4.69
2022-10-11T02:07:02.109Z,4.70
2022-10-11T02:07:12.611Z,4.70
2022-10-11T02:07:23.158Z,4.69
2022-10-11T02:07:33.640Z,4.70
2022-10-11T02:07:44.140Z,4.70
2022-10-11T02:07:54.632Z,4.72
2022-10-11T02:08:05.146Z,4.70
2022-10-11T02:08:15.667Z,4.72
2022-10-11T02:08:26.168Z,4.72
2022-10-11T02:08:36.669Z,4.73
2022-10-11T02:08:47.166Z,4.73
2022-10-11T02:08:57.671Z,4.72
2022-10-11T02:09:08.454Z,4.77
2022-10-11T02:09:18.687Z,4.75
2022-10-11T02:09:29.203Z,4.75
2022-10-11T02:09:39.705Z,4.77
2022-10-11T02:09:50.212Z,4.77
2022-10-11T02:10:00.717Z,4.77
2022-10-11T02:10:11.230Z,4.78
2022-10-11T02:10:21.742Z,4.78
2022-10-11T02:10:32.262Z,4.80
2022-10-11T02:10:42.760Z,4.82
2022-10-11T02:10:53.263Z,4.82
2022-10-11T02:11:03.766Z,4.84
2022-10-11T02:11:14.272Z,4.85
2022-10-11T02:11:24.782Z,4.85
2022-10-11T02:11:35.287Z,4.88
2022-10-11T02:11:45.793Z,4.89
2022-10-11T02:11:56.307Z,4.92
2022-10-11T02:12:06.842Z,4.94
2022-10-11T02:12:17.320Z,4.97
2022-10-11T02:12:27.814Z,4.97
2022-10-11T02:12:38.317Z,5.00
2022-10-11T02:12:48.835Z,5.00
2022-10-11T02:12:59.332Z,5.00
2022-10-11T02:13:09.832Z,5.02
2022-10-11T02:13:20.346Z,5.02
2022-10-11T02:13:30.855Z,5.02
2022-10-11T02:13:41.353Z,5.03
2022-10-11T02:13:51.863Z,5.04
2022-10-11T02:14:02.364Z,5.04
2022-10-11T02:14:12.913Z,5.04
2022-10-11T02:14:23.380Z,5.04
2022-10-11T02:14:33.879Z,5.04
2022-10-11T02:14:44.389Z,5.06
2022-10-11T02:14:54.890Z,5.06
2022-10-11T02:15:05.396Z,5.07
2022-10-11T02:15:15.906Z,5.07
2022-10-11T02:15:26.400Z,5.07
2022-10-11T02:15:36.900Z,5.09
2022-10-11T02:15:47.425Z,5.10
2022-10-11T02:15:57.907Z,5.09
2022-10-11T02:16:08.921Z,5.10
2022-10-11T02:16:18.917Z,5.10
2022-10-11T02:16:29.424Z,5.10
2022-10-11T02:16:39.940Z,5.10
2022-10-11T02:16:50.434Z,5.12
2022-10-11T02:17:00.937Z,5.10
2022-10-11T02:17:11.457Z,5.12
2022-10-11T02:17:21.945Z,5.13
2022-10-11T02:17:32.455Z,5.13
2022-10-11T02:17:42.960Z,5.15
2022-10-11T02:17:53.463Z,5.18
2022-10-11T02:18:03.970Z,5.21
2022-10-11T02:18:14.493Z,5.22
2022-10-11T02:18:24.985Z,5.24
2022-10-11T02:18:35.490Z,5.27
2022-10-11T02:18:45.987Z,5.27
2022-10-11T02:18:56.513Z,5.28
2022-10-11T02:19:06.996Z,5.28
2022-10-11T02:19:17.522Z,5.31
2022-10-11T02:19:28.008Z,5.30
2022-10-11T02:19:38.537Z,5.35
2022-10-11T02:19:49.019Z,5.33